createdAt,value
2018-07-19T07:09:18.914Z,21.60
2018-07-19T07:11:46.818Z,21.70
2018-07-19T07:14:14.696Z,21.90
2018-07-19T07:16:42.499Z,21.90
2018-07-19T07:19:10.344Z,21.90
2018-07-19T07:21:38.179Z,21.80
2018-07-19T07:24:06.041Z,22.00
2018-07-19T07:26:33.911Z,22.30
2018-07-19T07:29:01.750Z,22.60
2018-07-19T07:31:29.607Z,22.80
2018-07-19T07:33:57.439Z,22.90
2018-07-19T07:36:25.268Z,22.80
2018-07-19T07:38:53.180Z,22.90
2018-07-19T07:41:22.924Z,23.10
2018-07-19T07:43:50.817Z,23.00
2018-07-19T07:46:19.769Z,22.80
2018-07-19T07:48:47.636Z,23.00
2018-07-19T07:51:15.515Z,23.10
2018-07-19T07:53:43.317Z,23.10
2018-07-19T07:56:11.263Z,22.90
2018-07-19T07:58:39.332Z,22.60
2018-07-19T08:01:07.246Z,22.40
2018-07-19T08:03:35.108Z,22.30
2018-07-19T08:06:03.011Z,22.20
2018-07-19T08:08:30.910Z,22.10
2018-07-19T08:10:58.774Z,22.30
2018-07-19T08:13:26.621Z,22.60
2018-07-19T08:15:54.581Z,23.00
2018-07-19T08:18:22.339Z,23.30
2018-07-19T08:20:50.209Z,23.60
2018-07-19T08:23:18.104Z,23.90
2018-07-19T08:25:45.965Z,24.20
2018-07-19T08:28:13.802Z,24.40
2018-07-19T08:30:41.683Z,24.30
2018-07-19T08:33:09.639Z,24.50
2018-07-19T08:35:37.550Z,24.20
2018-07-19T08:38:05.553Z,24.00
2018-07-19T08:40:33.448Z,24.10
2018-07-19T08:43:01.306Z,24.20
2018-07-19T08:45:29.186Z,24.40
2018-07-19T08:47:57.074Z,24.50
2018-07-19T08:50:25.945Z,24.60
2018-07-19T08:52:53.815Z,24.90
2018-07-19T08:55:21.776Z,24.80
2018-07-19T08:57:49.576Z,25.00
2018-07-19T09:00:17.411Z,25.00
2018-07-19T09:02:45.261Z,25.30
2018-07-19T09:05:13.083Z,25.50
2018-07-19T09:07:40.906Z,25.90
2018-07-19T09:10:08.828Z,26.00
2018-07-19T09:12:36.657Z,25.80
2018-07-19T09:15:04.625Z,25.40
2018-07-19T09:17:32.445Z,25.40
2018-07-19T09:20:00.286Z,25.90
2018-07-19T09:22:28.196Z,26.00
2018-07-19T09:24:56.040Z,26.30
2018-07-19T09:27:23.892Z,26.30
2018-07-19T09:29:51.809Z,26.20
2018-07-19T09:32:21.995Z,26.10
2018-07-19T09:34:49.928Z,27.00
2018-07-19T09:37:18.236Z,27.10
2018-07-19T09:39:46.200Z,26.40
2018-07-19T09:42:15.408Z,25.80
2018-07-19T09:44:43.581Z,25.80
2018-07-19T09:47:12.158Z,25.40
2018-07-19T09:49:40.071Z,26.10
2018-07-19T09:52:08.175Z,25.90
2018-07-19T09:54:47.364Z,26.50
2018-07-19T09:57:16.150Z,27.20
2018-07-19T09:59:46.072Z,26.80
2018-07-19T10:02:14.162Z,27.30
2018-07-19T10:04:42.329Z,27.50
2018-07-19T10:07:10.411Z,26.70
2018-07-19T10:09:38.411Z,27.20
2018-07-19T10:12:06.450Z,27.20
2018-07-19T10:14:34.400Z,27.30
2018-07-19T10:17:02.474Z,27.30
2018-07-19T10:19:30.575Z,27.30
2018-07-19T10:21:58.754Z,27.30
2018-07-19T10:24:26.726Z,27.30
2018-07-19T10:26:54.884Z,28.30
2018-07-19T10:29:23.287Z,29.20
2018-07-19T10:31:51.362Z,27.90
2018-07-19T10:34:19.359Z,27.90
2018-07-19T10:36:47.488Z,28.10
2018-07-19T10:39:15.493Z,28.40
2018-07-19T10:41:44.781Z,28.40
2018-07-19T10:44:12.722Z,27.90
2018-07-19T10:46:41.046Z,27.00
2018-07-19T10:49:08.920Z,26.70
2018-07-19T10:51:37.245Z,26.60
2018-07-19T10:54:05.304Z,26.80
2018-07-19T10:56:33.451Z,27.20
2018-07-19T10:59:01.637Z,27.30
2018-07-19T11:01:31.460Z,27.80
2018-07-19T11:03:59.488Z,28.20
2018-07-19T11:06:27.761Z,28.10
2018-07-19T11:08:55.807Z,27.20
2018-07-19T11:11:23.768Z,27.10
2018-07-19T11:13:52.979Z,27.20
2018-07-19T11:16:21.268Z,27.40
2018-07-19T11:18:50.341Z,27.80
2018-07-19T11:21:18.324Z,28.30
2018-07-19T11:23:46.250Z,28.10
2018-07-19T11:26:14.113Z,28.20
2018-07-19T11:28:42.253Z,28.40
2018-07-19T11:31:10.181Z,28.60
2018-07-19T11:33:38.108Z,28.20
2018-07-19T11:36:05.954Z,28.40
2018-07-19T11:38:33.803Z,28.10
2018-07-19T11:41:01.669Z,27.20
2018-07-19T11:43:29.624Z,26.80
2018-07-19T11:45:57.579Z,26.70
2018-07-19T11:48:25.440Z,26.60
2018-07-19T11:50:53.422Z,26.80
2018-07-19T11:53:21.376Z,26.90
2018-07-19T11:55:49.299Z,27.40
2018-07-19T11:58:17.196Z,27.80
2018-07-19T12:00:48.400Z,27.60
2018-07-19T12:03:16.409Z,27.50
2018-07-19T12:05:45.467Z,27.40
2018-07-19T12:08:13.353Z,27.00
2018-07-19T12:10:41.314Z,26.60
2018-07-19T12:13:09.284Z,26.30
2018-07-19T12:15:37.506Z,26.40
2018-07-19T12:18:05.578Z,26.40
2018-07-19T12:20:33.998Z,26.60
2018-07-19T12:23:02.029Z,26.60
2018-07-19T12:25:32.904Z,26.40
2018-07-19T12:28:00.802Z,26.60
2018-07-19T12:30:30.924Z,26.80
2018-07-19T12:32:59.033Z,26.90
2018-07-19T12:35:27.234Z,27.30
2018-07-19T12:37:55.425Z,27.50
2018-07-19T12:40:24.888Z,28.00
2018-07-19T12:42:52.811Z,28.30
2018-07-19T12:45:20.919Z,28.60
2018-07-19T12:47:49.669Z,28.60
2018-07-19T12:50:18.642Z,28.60
2018-07-19T12:52:47.560Z,28.80
2018-07-19T12:55:15.559Z,28.90
2018-07-19T12:57:43.972Z,28.80
2018-07-19T13:00:12.390Z,28.30
2018-07-19T13:02:40.370Z,28.30
2018-07-19T13:05:11.753Z,28.00
2018-07-19T13:07:39.745Z,27.70
2018-07-19T13:10:08.943Z,27.30
2018-07-19T13:12:37.000Z,26.90
2018-07-19T13:15:05.495Z,27.00
2018-07-19T13:17:33.768Z,26.80
2018-07-19T13:20:01.742Z,26.60
2018-07-19T13:22:29.922Z,26.60
2018-07-19T13:24:58.247Z,26.90
2018-07-19T13:27:26.404Z,26.80
2018-07-19T13:29:54.405Z,26.60
2018-07-19T13:32:23.603Z,26.50
2018-07-19T13:34:51.475Z,26.60
2018-07-19T13:37:19.513Z,26.90
2018-07-19T13:39:47.473Z,27.00
2018-07-19T13:42:17.350Z,26.90
2018-07-19T13:44:45.307Z,27.50
2018-07-19T13:47:13.261Z,27.70
2018-07-19T13:49:41.427Z,27.70
2018-07-19T13:52:09.531Z,27.60
2018-07-19T13:54:48.112Z,27.20
2018-07-19T13:57:16.367Z,27.30
2018-07-19T13:59:44.614Z,27.70
2018-07-19T14:02:13.270Z,28.00
2018-07-19T14:04:41.494Z,28.40
2018-07-19T14:07:09.651Z,28.30
2018-07-19T14:09:38.888Z,28.80
2018-07-19T14:12:07.052Z,28.70
2018-07-19T14:14:35.079Z,29.10
2018-07-19T14:17:03.231Z,28.80
2018-07-19T14:19:31.356Z,28.70
2018-07-19T14:21:59.362Z,28.20
2018-07-19T14:24:27.377Z,28.50
2018-07-19T14:26:56.417Z,28.40
2018-07-19T14:29:24.395Z,28.30
2018-07-19T14:31:56.104Z,28.30
2018-07-19T14:34:24.158Z,28.00
2018-07-19T14:36:52.244Z,27.90
2018-07-19T14:39:21.209Z,28.00
2018-07-19T14:41:49.391Z,27.90
2018-07-19T14:44:17.488Z,28.30
2018-07-19T14:46:45.472Z,28.30
2018-07-19T14:49:13.751Z,28.50
2018-07-19T14:51:41.857Z,28.60
2018-07-19T14:54:10.082Z,28.10
2018-07-19T14:56:38.240Z,28.00
2018-07-19T14:59:06.528Z,28.00
2018-07-19T15:01:34.713Z,28.40
2018-07-19T15:04:03.013Z,28.40
2018-07-19T15:06:31.154Z,28.40
2018-07-19T15:09:00.554Z,28.40
2018-07-19T15:11:28.644Z,28.50
2018-07-19T15:13:56.870Z,28.80
2018-07-19T15:16:25.008Z,28.60
2018-07-19T15:18:53.197Z,28.70
2018-07-19T15:21:21.345Z,29.00
2018-07-19T15:23:49.547Z,29.50
2018-07-19T15:26:17.734Z,28.70
2018-07-19T15:28:46.036Z,28.70
2018-07-19T15:31:14.209Z,28.80
2018-07-19T15:33:42.280Z,29.20
2018-07-19T15:36:10.344Z,29.40
2018-07-19T15:38:40.342Z,29.00
2018-07-19T15:41:08.414Z,29.10
2018-07-19T15:43:36.603Z,28.90
2018-07-19T15:46:04.744Z,29.00
2018-07-19T15:48:33.079Z,28.90
2018-07-19T15:51:01.255Z,28.60
2018-07-19T15:53:29.234Z,28.60
2018-07-19T15:55:57.431Z,28.30
2018-07-19T15:58:25.458Z,28.60
2018-07-19T16:00:53.579Z,28.80
2018-07-19T16:03:21.715Z,29.10
2018-07-19T16:05:49.993Z,29.10
2018-07-19T16:08:18.097Z,28.40
2018-07-19T16:10:47.291Z,28.30
2018-07-19T16:13:15.486Z,28.70
2018-07-19T16:15:43.401Z,29.30
2018-07-19T16:18:11.548Z,29.00
2018-07-19T16:20:39.634Z,29.10
2018-07-19T16:23:07.786Z,29.20
2018-07-19T16:25:35.877Z,28.60
2018-07-19T16:28:04.136Z,28.50
2018-07-19T16:30:32.179Z,28.50
2018-07-19T16:33:00.247Z,28.50
2018-07-19T16:35:28.448Z,28.80
2018-07-19T16:37:56.731Z,28.50
2018-07-19T16:40:24.839Z,28.60
2018-07-19T16:42:52.890Z,28.80
2018-07-19T16:45:21.156Z,28.60
2018-07-19T16:47:49.280Z,28.50
2018-07-19T16:50:17.470Z,28.10
2018-07-19T16:52:45.562Z,27.90
2018-07-19T16:55:13.657Z,27.60
2018-07-19T16:57:41.663Z,27.40
2018-07-19T17:00:10.244Z,27.60
2018-07-19T17:02:38.175Z,27.70
2018-07-19T17:05:06.081Z,27.10
2018-07-19T17:07:33.884Z,27.20
2018-07-19T17:10:01.719Z,27.20
2018-07-19T17:12:29.587Z,27.50
2018-07-19T17:14:57.411Z,27.50
2018-07-19T17:17:25.484Z,27.20
2018-07-19T17:19:53.350Z,27.00
2018-07-19T17:22:24.486Z,26.60
2018-07-19T17:24:52.371Z,26.40
2018-07-19T17:27:22.277Z,26.00
2018-07-19T17:29:50.209Z,25.40
2018-07-19T17:33:26.694Z,24.70
2018-07-19T17:35:54.556Z,24.40
2018-07-19T17:38:22.636Z,23.90
2018-07-19T17:40:50.587Z,23.70
2018-07-19T17:43:18.453Z,23.60
2018-07-19T17:45:46.337Z,23.50
2018-07-19T17:48:14.153Z,23.50
2018-07-19T17:50:42.084Z,23.40
2018-07-19T17:53:09.941Z,23.30
2018-07-19T17:55:38.035Z,23.20
2018-07-19T17:58:05.906Z,23.10
2018-07-19T18:00:34.038Z,22.90
2018-07-19T18:03:01.875Z,22.80
2018-07-19T18:05:29.915Z,22.80
2018-07-19T18:07:57.745Z,22.70
2018-07-19T18:10:25.588Z,22.60
2018-07-19T18:12:53.608Z,22.60
2018-07-19T18:15:21.463Z,22.50
2018-07-19T18:17:49.250Z,22.50
2018-07-19T18:20:17.097Z,22.40
2018-07-19T18:22:45.006Z,22.50
2018-07-19T18:25:12.808Z,22.50
2018-07-19T18:27:40.800Z,22.40
2018-07-19T18:30:09.153Z,22.40
2018-07-19T18:32:37.283Z,22.50
2018-07-19T18:35:05.111Z,22.50
2018-07-19T18:37:33.028Z,22.30
2018-07-19T18:40:00.821Z,22.20
2018-07-19T18:42:28.767Z,22.20
2018-07-19T18:44:56.708Z,22.00
2018-07-19T18:47:24.808Z,21.90
2018-07-19T18:49:52.640Z,21.80
2018-07-19T18:52:20.466Z,21.70
2018-07-19T18:54:48.293Z,21.60
2018-07-19T18:57:16.197Z,21.50
2018-07-19T18:59:44.099Z,21.30
2018-07-19T19:02:12.298Z,21.10
2018-07-19T19:04:40.228Z,21.00
2018-07-19T19:07:08.154Z,20.90
2018-07-19T19:09:35.993Z,20.90
2018-07-19T19:12:04.241Z,20.80
2018-07-19T19:14:32.269Z,20.70
2018-07-19T19:17:00.141Z,20.60
2018-07-19T19:19:28.240Z,20.50
2018-07-19T19:21:56.129Z,20.40
2018-07-19T19:24:24.201Z,20.20
2018-07-19T19:26:52.075Z,20.10
2018-07-19T19:29:20.107Z,20.00
2018-07-19T19:31:48.916Z,19.90
2018-07-19T19:34:17.069Z,19.80
2018-07-19T19:36:44.917Z,19.70
2018-07-19T19:39:13.273Z,19.50
2018-07-19T19:41:41.505Z,19.40
2018-07-19T19:44:10.038Z,19.30
2018-07-19T19:46:38.989Z,19.10
2018-07-19T19:49:06.842Z,19.00
2018-07-19T19:51:34.729Z,19.00
2018-07-19T19:54:02.537Z,18.90
2018-07-19T19:56:30.453Z,18.90
2018-07-19T19:58:58.348Z,18.70
2018-07-19T20:01:26.424Z,18.70
2018-07-19T20:03:54.243Z,18.60
2018-07-19T20:06:22.071Z,18.50
2018-07-19T20:08:49.940Z,18.50
2018-07-19T20:11:17.898Z,18.40
2018-07-19T20:13:45.924Z,18.40
2018-07-19T20:16:13.791Z,18.30
2018-07-19T20:18:41.859Z,18.30
2018-07-19T20:21:09.862Z,18.10
2018-07-19T20:23:38.818Z,18.00
2018-07-19T20:26:06.697Z,17.90
2018-07-19T20:28:34.615Z,17.90
2018-07-19T20:31:02.472Z,17.80
2018-07-19T20:33:31.408Z,17.80
2018-07-19T20:35:59.270Z,17.70
2018-07-19T20:38:27.336Z,17.60
2018-07-19T20:40:55.219Z,17.40
2018-07-19T20:43:23.234Z,17.30
2018-07-19T20:45:51.168Z,17.30
2018-07-19T20:48:29.264Z,17.20
2018-07-19T20:50:57.187Z,17.20
2018-07-19T20:53:25.197Z,17.10
2018-07-19T20:55:53.205Z,17.10
2018-07-19T20:58:21.112Z,17.10
2018-07-19T21:00:48.930Z,16.90
2018-07-19T21:03:16.929Z,16.90
2018-07-19T21:05:44.839Z,16.80
2018-07-19T21:08:12.834Z,16.60
2018-07-19T21:10:40.683Z,16.50
2018-07-19T21:13:08.812Z,16.40
